createdAt,value
2017-06-29T00:01:00.340Z,0
2017-06-29T00:11:00.390Z,0
2017-06-29T00:21:00.337Z,0
2017-06-29T00:31:00.332Z,0
2017-06-29T00:41:00.339Z,0
2017-06-29T00:51:00.279Z,0
2017-06-29T01:01:00.686Z,0
2017-06-29T01:11:00.289Z,0
2017-06-29T01:21:00.377Z,0
2017-06-29T01:31:00.382Z,0
2017-06-29T01:41:00.349Z,0
2017-06-29T01:51:00.363Z,0
2017-06-29T02:01:00.398Z,0
2017-06-29T02:11:00.638Z,0
2017-06-29T02:21:00.300Z,4
2017-06-29T02:31:00.366Z,4
2017-06-29T02:41:00.297Z,12
2017-06-29T02:51:00.420Z,32
2017-06-29T03:01:00.364Z,92
2017-06-29T03:11:00.374Z,204
2017-06-29T03:21:00.327Z,648
2017-06-29T03:31:00.308Z,1180
2017-06-29T03:41:00.334Z,1160
2017-06-29T03:51:00.281Z,1424
2017-06-29T04:01:00.377Z,2044
2017-06-29T04:11:00.291Z,3048
2017-06-29T04:21:00.265Z,3812
2017-06-29T04:31:00.363Z,4624
2017-06-29T04:41:00.284Z,5276
2017-06-29T04:51:00.377Z,6336
2017-06-29T05:01:00.333Z,6776
2017-06-29T05:11:00.271Z,8196
2017-06-29T05:21:00.385Z,9036
2017-06-29T05:31:00.336Z,8808
2017-06-29T05:41:00.452Z,12768
2017-06-29T05:51:00.384Z,9824
2017-06-29T06:01:00.307Z,12276
2017-06-29T06:11:00.501Z,9676
2017-06-29T06:21:00.340Z,35488
2017-06-29T06:31:00.287Z,48896
2017-06-29T06:41:00.572Z,19552
2017-06-29T06:51:00.351Z,13856
2017-06-29T07:01:00.390Z,10360
2017-06-29T07:11:00.407Z,14064
2017-06-29T07:21:00.305Z,11816
2017-06-29T07:31:00.500Z,17112
2017-06-29T07:41:00.342Z,14708
2017-06-29T07:51:00.498Z,5500
2017-06-29T08:01:00.442Z,9356
2017-06-29T08:11:01.242Z,14400
2017-06-29T08:21:00.488Z,7896
2017-06-29T08:31:00.498Z,7176
2017-06-29T08:41:00.632Z,5412
2017-06-29T08:51:00.356Z,13560
2017-06-29T09:01:00.321Z,16388
2017-06-29T09:11:00.463Z,2948
2017-06-29T09:21:00.333Z,8512
2017-06-29T09:31:00.453Z,17068
2017-06-29T09:41:00.398Z,17752
2017-06-29T09:51:01.352Z,11148
2017-06-29T10:01:01.437Z,6492
2017-06-29T10:11:07.849Z,8176
2017-06-29T10:21:00.651Z,10068
2017-06-29T10:31:00.426Z,11984
2017-06-29T10:41:00.359Z,13896
2017-06-29T10:51:00.391Z,17660
2017-06-29T11:01:00.354Z,11172
2017-06-29T11:11:00.378Z,10916
2017-06-29T11:21:00.340Z,16536
2017-06-29T11:31:00.350Z,21664
2017-06-29T11:41:00.371Z,15432
2017-06-29T11:51:00.367Z,6316
2017-06-29T12:01:00.365Z,6540
2017-06-29T12:11:00.359Z,2864
2017-06-29T12:21:00.373Z,7780
2017-06-29T12:31:00.393Z,6120
2017-06-29T12:41:00.487Z,4540
2017-06-29T12:51:00.342Z,2664
2017-06-29T13:01:00.349Z,4168
2017-06-29T13:11:00.429Z,6540
2017-06-29T13:21:00.377Z,8852
2017-06-29T13:31:00.414Z,5948
2017-06-29T13:41:00.436Z,7064
2017-06-29T13:51:00.364Z,7664
2017-06-29T14:01:00.371Z,11036
2017-06-29T14:11:00.424Z,10600
2017-06-29T14:21:01.055Z,8172
2017-06-29T14:31:00.414Z,9444
2017-06-29T14:41:00.438Z,9988
2017-06-29T14:51:00.411Z,9880
2017-06-29T15:01:00.388Z,9796
2017-06-29T15:11:00.383Z,7776
2017-06-29T15:21:00.405Z,8492
2017-06-29T15:31:00.414Z,8016
2017-06-29T15:41:00.404Z,7968
2017-06-29T15:51:00.402Z,7624
2017-06-29T16:01:00.415Z,7052
2017-06-29T16:11:00.380Z,6748
2017-06-29T16:21:00.416Z,6512
2017-06-29T16:31:01.294Z,6956
2017-06-29T16:41:00.419Z,6396
2017-06-29T16:51:00.368Z,6232
2017-06-29T17:01:00.421Z,5424
2017-06-29T17:11:01.418Z,4520
2017-06-29T17:21:00.427Z,4136
2017-06-29T17:31:00.417Z,4520
2017-06-29T17:41:00.423Z,3896
2017-06-29T17:51:00.430Z,3228
2017-06-29T18:01:00.496Z,2952
2017-06-29T18:11:00.408Z,2700
2017-06-29T18:21:00.431Z,2324
2017-06-29T18:31:00.661Z,1688
2017-06-29T18:41:00.471Z,1596
2017-06-29T18:51:00.426Z,1296
2017-06-29T19:01:00.523Z,872
2017-06-29T19:11:00.438Z,636
2017-06-29T19:21:00.589Z,384
2017-06-29T19:31:00.550Z,244
2017-06-29T19:41:00.473Z,116
2017-06-29T19:51:00.416Z,56
2017-06-29T20:01:00.642Z,32
2017-06-29T20:11:00.427Z,16
2017-06-29T20:21:00.436Z,8
2017-06-29T20:31:00.504Z,4
2017-06-29T20:41:00.531Z,0
2017-06-29T20:51:00.520Z,0
2017-06-29T21:01:00.468Z,4
2017-06-29T21:11:00.534Z,0
2017-06-29T21:21:00.468Z,0
2017-06-29T21:31:00.417Z,0
2017-06-29T21:41:00.543Z,0
2017-06-29T21:51:00.441Z,0
2017-06-29T22:01:00.563Z,0
2017-06-29T22:11:00.556Z,0
2017-06-29T22:21:00.403Z,0
2017-06-29T22:31:00.454Z,0
2017-06-29T22:41:00.479Z,0
2017-06-29T22:51:02.710Z,0
2017-06-29T23:01:00.407Z,0
2017-06-29T23:11:00.473Z,0
2017-06-29T23:21:00.464Z,0
2017-06-29T23:31:00.502Z,0
2017-06-29T23:41:00.529Z,0
2017-06-29T23:51:00.406Z,0
